sensor_id;sensor_type;location;lat;lon;timestamp;temperature;humidity
11838;DHT22;5978;51.020;6.764;2022-11-21T00:00:03;7.40;99.90
11838;DHT22;5978;51.020;6.764;2022-11-21T00:02:29;7.40;99.90
11838;DHT22;5978;51.020;6.764;2022-11-21T00:04:55;7.50;99.90
11838;DHT22;5978;51.020;6.764;2022-11-21T00:07:20;7.50;99.90
11838;DHT22;5978;51.020;6.764;2022-11-21T00:09:46;7.50;99.90
11838;DHT22;5978;51.020;6.764;2022-11-21T00:12:11;7.50;99.90
11838;DHT22;5978;51.020;6.764;2022-11-21T00:14:37;7.40;99.90
11838;DHT22;5978;51.020;6.764;2022-11-21T00:17:03;7.40;99.90
11838;DHT22;5978;51.020;6.764;2022-11-21T00:19:28;7.40;99.90
11838;DHT22;5978;51.020;6.764;2022-11-21T00:21:54;7.40;99.90
11838;DHT22;5978;51.020;6.764;2022-11-21T00:24:19;7.30;99.90
11838;DHT22;5978;51.020;6.764;2022-11-21T00:26:45;7.30;99.90
11838;DHT22;5978;51.020;6.764;2022-11-21T00:29:10;7.30;99.90
11838;DHT22;5978;51.020;6.764;2022-11-21T00:31:36;7.30;99.90
11838;DHT22;5978;51.020;6.764;2022-11-21T00:34:01;7.20;99.90
11838;DHT22;5978;51.020;6.764;2022-11-21T00:36:27;7.20;99.90
11838;DHT22;5978;51.020;6.764;2022-11-21T00:38:52;7.20;99.90
11838;DHT22;5978;51.020;6.764;2022-11-21T00:41:18;7.20;99.90
11838;DHT22;5978;51.020;6.764;2022-11-21T00:43:43;7.20;99.90
11838;DHT22;5978;51.020;6.764;2022-11-21T00:46:09;7.20;99.90
11838;DHT22;5978;51.020;6.764;2022-11-21T00:48:34;7.20;99.90
11838;DHT22;5978;51.020;6.764;2022-11-21T00:51:00;7.20;99.90
11838;DHT22;5978;51.020;6.764;2022-11-21T00:53:26;7.20;99.90
11838;DHT22;5978;51.020;6.764;2022-11-21T00:55:52;7.30;99.90
11838;DHT22;5978;51.020;6.764;2022-11-21T00:58:17;7.30;99.90
11838;DHT22;5978;51.020;6.764;2022-11-21T01:00:43;7.30;99.90
11838;DHT22;5978;51.020;6.764;2022-11-21T01:03:08;7.30;99.90
11838;DHT22;5978;51.020;6.764;2022-11-21T01:05:34;7.30;99.90
11838;DHT22;5978;51.020;6.764;2022-11-21T01:07:59;7.20;99.90
11838;DHT22;5978;51.020;6.764;2022-11-21T01:10:25;7.20;99.90
11838;DHT22;5978;51.020;6.764;2022-11-21T01:12:51;7.10;99.90
11838;DHT22;5978;51.020;6.764;2022-11-21T01:15:16;7.10;99.90
11838;DHT22;5978;51.020;6.764;2022-11-21T01:17:42;7.10;99.90
11838;DHT22;5978;51.020;6.764;2022-11-21T01:20:08;7.10;99.90
11838;DHT22;5978;51.020;6.764;2022-11-21T01:22:33;7.10;99.90
11838;DHT22;5978;51.020;6.764;2022-11-21T01:24:59;7.10;99.90
11838;DHT22;5978;51.020;6.764;2022-11-21T01:27:25;7.20;99.90
11838;DHT22;5978;51.020;6.764;2022-11-21T01:29:50;7.20;99.90
11838;DHT22;5978;51.020;6.764;2022-11-21T01:32:17;7.20;99.90
11838;DHT22;5978;51.020;6.764;2022-11-21T01:34:43;7.20;99.90
11838;DHT22;5978;51.020;6.764;2022-11-21T01:37:08;7.20;99.90
11838;DHT22;5978;51.020;6.764;2022-11-21T01:39:34;7.20;99.90
11838;DHT22;5978;51.020;6.764;2022-11-21T01:42:00;7.20;99.90
11838;DHT22;5978;51.020;6.764;2022-11-21T01:44:49;7.30;99.90
11838;DHT22;5978;51.020;6.764;2022-11-21T01:47:16;7.20;99.90
11838;DHT22;5978;51.020;6.764;2022-11-21T01:49:42;7.30;99.90
11838;DHT22;5978;51.020;6.764;2022-11-21T01:52:11;7.20;99.90
11838;DHT22;5978;51.020;6.764;2022-11-21T01:54:52;7.20;99.90
11838;DHT22;5978;51.020;6.764;2022-11-21T02:00:02;7.10;99.90
11838;DHT22;5978;51.020;6.764;2022-11-21T02:02:33;7.10;99.90
11838;DHT22;5978;51.020;6.764;2022-11-21T02:05:02;7.10;99.90
11838;DHT22;5978;51.020;6.764;2022-11-21T02:07:32;7.10;99.90
11838;DHT22;5978;51.020;6.764;2022-11-21T02:10:01;7.10;99.90
11838;DHT22;5978;51.020;6.764;2022-11-21T02:15:11;7.10;99.90
11838;DHT22;5978;51.020;6.764;2022-11-21T02:17:37;7.10;99.90
11838;DHT22;5978;51.020;6.764;2022-11-21T02:20:08;7.10;99.90
11838;DHT22;5978;51.020;6.764;2022-11-21T02:25:18;7.10;99.90
11838;DHT22;5978;51.020;6.764;2022-11-21T02:27:45;7.10;99.90
11838;DHT22;5978;51.020;6.764;2022-11-21T02:30:14;7.10;99.90
11838;DHT22;5978;51.020;6.764;2022-11-21T02:32:42;7.00;99.90
11838;DHT22;5978;51.020;6.764;2022-11-21T02:35:13;7.00;99.90
11838;DHT22;5978;51.020;6.764;2022-11-21T02:37:38;7.00;99.90
11838;DHT22;5978;51.020;6.764;2022-11-21T02:40:09;6.90;99.90
11838;DHT22;5978;51.020;6.764;2022-11-21T02:47:36;6.80;99.90
11838;DHT22;5978;51.020;6.764;2022-11-21T02:50:11;6.80;99.90
11838;DHT22;5978;51.020;6.764;2022-11-21T02:52:37;6.80;99.90
11838;DHT22;5978;51.020;6.764;2022-11-21T02:55:03;6.80;99.90
11838;DHT22;5978;51.020;6.764;2022-11-21T02:57:30;6.90;99.90
11838;DHT22;5978;51.020;6.764;2022-11-21T02:59:56;6.90;99.90
11838;DHT22;5978;51.020;6.764;2022-11-21T03:02:21;6.90;99.90
11838;DHT22;5978;51.020;6.764;2022-11-21T03:04:47;6.90;99.90
11838;DHT22;5978;51.020;6.764;2022-11-21T03:07:12;7.00;99.90
11838;DHT22;5978;51.020;6.764;2022-11-21T03:09:39;7.00;99.90
11838;DHT22;5978;51.020;6.764;2022-11-21T03:12:07;7.00;99.90
11838;DHT22;5978;51.020;6.764;2022-11-21T03:14:34;7.00;99.90
11838;DHT22;5978;51.020;6.764;2022-11-21T03:17:00;7.00;99.90
11838;DHT22;5978;51.020;6.764;2022-11-21T03:19:25;7.00;99.90
11838;DHT22;5978;51.020;6.764;2022-11-21T03:21:51;7.00;99.90
11838;DHT22;5978;51.020;6.764;2022-11-21T03:24:16;7.00;99.90
11838;DHT22;5978;51.020;6.764;2022-11-21T03:26:42;7.00;99.90
11838;DHT22;5978;51.020;6.764;2022-11-21T03:29:08;7.00;99.90
11838;DHT22;5978;51.020;6.764;2022-11-21T03:31:33;7.00;99.90
11838;DHT22;5978;51.020;6.764;2022-11-21T03:33:59;7.00;99.90
11838;DHT22;5978;51.020;6.764;2022-11-21T03:36:24;7.00;99.90
11838;DHT22;5978;51.020;6.764;2022-11-21T03:38:50;7.00;99.90
11838;DHT22;5978;51.020;6.764;2022-11-21T03:41:16;7.00;99.90
11838;DHT22;5978;51.020;6.764;2022-11-21T03:43:54;7.00;99.90
11838;DHT22;5978;51.020;6.764;2022-11-21T03:46:20;7.00;99.90
11838;DHT22;5978;51.020;6.764;2022-11-21T03:48:45;7.00;99.90
11838;DHT22;5978;51.020;6.764;2022-11-21T03:51:11;7.00;99.90
11838;DHT22;5978;51.020;6.764;2022-11-21T03:53:36;7.00;99.90
11838;DHT22;5978;51.020;6.764;2022-11-21T03:56:02;7.00;99.90
11838;DHT22;5978;51.020;6.764;2022-11-21T03:58:28;6.90;99.90
11838;DHT22;5978;51.020;6.764;2022-11-21T04:00:53;6.90;99.90
11838;DHT22;5978;51.020;6.764;2022-11-21T04:03:19;6.90;99.90
11838;DHT22;5978;51.020;6.764;2022-11-21T04:05:44;6.90;99.90
11838;DHT22;5978;51.020;6.764;2022-11-21T04:08:10;6.90;99.90
11838;DHT22;5978;51.020;6.764;2022-11-21T04:10:35;6.90;99.90
11838;DHT22;5978;51.020;6.764;2022-11-21T04:13:01;6.90;99.90
11838;DHT22;5978;51.020;6.764;2022-11-21T04:15:26;6.90;99.90
11838;DHT22;5978;51.020;6.764;2022-11-21T04:17:52;6.90;99.90
11838;DHT22;5978;51.020;6.764;2022-11-21T04:20:17;6.90;99.90
11838;DHT22;5978;51.020;6.764;2022-11-21T04:22:43;6.90;99.90
11838;DHT22;5978;51.020;6.764;2022-11-21T04:25:09;6.90;99.90
11838;DHT22;5978;51.020;6.764;2022-11-21T04:27:34;6.90;99.90
11838;DHT22;5978;51.020;6.764;2022-11-21T04:30:00;6.90;99.90
11838;DHT22;5978;51.020;6.764;2022-11-21T04:32:26;6.80;99.90
11838;DHT22;5978;51.020;6.764;2022-11-21T04:34:51;6.90;99.90
11838;DHT22;5978;51.020;6.764;2022-11-21T04:37:17;6.90;99.90
11838;DHT22;5978;51.020;6.764;2022-11-21T04:39:42;6.90;99.90
11838;DHT22;5978;51.020;6.764;2022-11-21T04:42:08;6.90;99.90
11838;DHT22;5978;51.020;6.764;2022-11-21T04:44:33;6.90;99.90
11838;DHT22;5978;51.020;6.764;2022-11-21T04:46:59;6.90;99.90
11838;DHT22;5978;51.020;6.764;2022-11-21T04:49:24;6.90;99.90
11838;DHT22;5978;51.020;6.764;2022-11-21T04:51:50;6.90;99.90
11838;DHT22;5978;51.020;6.764;2022-11-21T04:54:16;7.00;99.90
11838;DHT22;5978;51.020;6.764;2022-11-21T04:56:41;6.90;99.90
11838;DHT22;5978;51.020;6.764;2022-11-21T04:59:07;6.90;99.90
11838;DHT22;5978;51.020;6.764;2022-11-21T05:01:33;6.90;99.90
11838;DHT22;5978;51.020;6.764;2022-11-21T05:03:58;7.00;99.90
11838;DHT22;5978;51.020;6.764;2022-11-21T05:06:24;7.00;99.90
11838;DHT22;5978;51.020;6.764;2022-11-21T05:08:49;7.00;99.90
11838;DHT22;5978;51.020;6.764;2022-11-21T05:11:15;7.00;99.90
11838;DHT22;5978;51.020;6.764;2022-11-21T05:13:59;6.90;99.90
11838;DHT22;5978;51.020;6.764;2022-11-21T05:16:25;7.00;99.90
11838;DHT22;5978;51.020;6.764;2022-11-21T05:18:50;7.00;99.90
11838;DHT22;5978;51.020;6.764;2022-11-21T05:21:16;7.00;99.90
11838;DHT22;5978;51.020;6.764;2022-11-21T05:23:41;7.00;99.90
11838;DHT22;5978;51.020;6.764;2022-11-21T05:26:07;7.00;99.90
11838;DHT22;5978;51.020;6.764;2022-11-21T05:28:32;6.90;99.90
11838;DHT22;5978;51.020;6.764;2022-11-21T05:30:58;6.80;99.90
11838;DHT22;5978;51.020;6.764;2022-11-21T05:33:23;6.80;99.90
11838;DHT22;5978;51.020;6.764;2022-11-21T05:35:49;6.80;99.90
11838;DHT22;5978;51.020;6.764;2022-11-21T05:38:15;6.90;99.90
11838;DHT22;5978;51.020;6.764;2022-11-21T05:40:40;6.80;99.90
11838;DHT22;5978;51.020;6.764;2022-11-21T05:43:06;6.90;99.90
11838;DHT22;5978;51.020;6.764;2022-11-21T05:45:50;6.90;99.90
11838;DHT22;5978;51.020;6.764;2022-11-21T05:48:16;6.80;99.90
11838;DHT22;5978;51.020;6.764;2022-11-21T05:50:46;6.90;99.90
11838;DHT22;5978;51.020;6.764;2022-11-21T05:53:13;6.90;99.90
11838;DHT22;5978;51.020;6.764;2022-11-21T05:55:38;6.90;99.90
11838;DHT22;5978;51.020;6.764;2022-11-21T05:58:04;6.90;99.90
11838;DHT22;5978;51.020;6.764;2022-11-21T06:00:29;6.90;99.90
11838;DHT22;5978;51.020;6.764;2022-11-21T06:02:55;6.90;99.90
11838;DHT22;5978;51.020;6.764;2022-11-21T06:05:39;7.00;99.90
11838;DHT22;5978;51.020;6.764;2022-11-21T06:08:05;7.00;99.90
11838;DHT22;5978;51.020;6.764;2022-11-21T06:10:30;7.00;99.90
11838;DHT22;5978;51.020;6.764;2022-11-21T06:12:59;7.00;99.90
11838;DHT22;5978;51.020;6.764;2022-11-21T06:15:25;7.00;99.90
11838;DHT22;5978;51.020;6.764;2022-11-21T06:17:51;7.00;99.90
11838;DHT22;5978;51.020;6.764;2022-11-21T06:20:17;7.00;99.90
11838;DHT22;5978;51.020;6.764;2022-11-21T06:22:42;7.00;99.90
11838;DHT22;5978;51.020;6.764;2022-11-21T06:25:08;7.00;99.90
11838;DHT22;5978;51.020;6.764;2022-11-21T06:27:34;7.00;99.90
11838;DHT22;5978;51.020;6.764;2022-11-21T06:29:59;7.00;99.90
11838;DHT22;5978;51.020;6.764;2022-11-21T06:32:25;7.00;99.90
11838;DHT22;5978;51.020;6.764;2022-11-21T06:34:50;7.10;99.90
11838;DHT22;5978;51.020;6.764;2022-11-21T06:37:16;7.00;99.90
11838;DHT22;5978;51.020;6.764;2022-11-21T06:39:41;7.00;99.90
11838;DHT22;5978;51.020;6.764;2022-11-21T06:42:07;7.00;99.90
11838;DHT22;5978;51.020;6.764;2022-11-21T06:44:33;7.00;99.90
11838;DHT22;5978;51.020;6.764;2022-11-21T06:46:58;7.00;99.90
11838;DHT22;5978;51.020;6.764;2022-11-21T06:49:24;6.90;99.90
11838;DHT22;5978;51.020;6.764;2022-11-21T06:51:49;7.00;99.90
11838;DHT22;5978;51.020;6.764;2022-11-21T06:54:15;7.00;99.90
11838;DHT22;5978;51.020;6.764;2022-11-21T06:56:41;7.00;99.90
11838;DHT22;5978;51.020;6.764;2022-11-21T06:59:06;7.00;99.90
11838;DHT22;5978;51.020;6.764;2022-11-21T07:01:32;7.10;99.90
11838;DHT22;5978;51.020;6.764;2022-11-21T07:03:57;7.10;99.90
11838;DHT22;5978;51.020;6.764;2022-11-21T07:06:23;7.20;99.90
11838;DHT22;5978;51.020;6.764;2022-11-21T07:08:52;7.20;99.90
11838;DHT22;5978;51.020;6.764;2022-11-21T07:11:18;7.20;99.90
11838;DHT22;5978;51.020;6.764;2022-11-21T07:13:44;7.20;99.90
11838;DHT22;5978;51.020;6.764;2022-11-21T07:16:11;7.20;99.90
11838;DHT22;5978;51.020;6.764;2022-11-21T07:18:39;7.20;99.90
11838;DHT22;5978;51.020;6.764;2022-11-21T07:21:06;7.20;99.90
11838;DHT22;5978;51.020;6.764;2022-11-21T07:23:33;7.20;99.90
11838;DHT22;5978;51.020;6.764;2022-11-21T07:26:03;7.10;99.90
11838;DHT22;5978;51.020;6.764;2022-11-21T07:28:29;7.10;99.90
11838;DHT22;5978;51.020;6.764;2022-11-21T07:30:56;7.10;99.90
11838;DHT22;5978;51.020;6.764;2022-11-21T07:33:22;7.10;99.90
11838;DHT22;5978;51.020;6.764;2022-11-21T07:35:47;7.10;99.90
11838;DHT22;5978;51.020;6.764;2022-11-21T07:38:13;7.10;99.90
11838;DHT22;5978;51.020;6.764;2022-11-21T07:40:38;7.20;99.90
11838;DHT22;5978;51.020;6.764;2022-11-21T07:43:05;7.20;99.90
11838;DHT22;5978;51.020;6.764;2022-11-21T07:45:31;7.20;99.90
11838;DHT22;5978;51.020;6.764;2022-11-21T07:48:00;7.20;99.90
11838;DHT22;5978;51.020;6.764;2022-11-21T07:50:26;7.20;99.90
11838;DHT22;5978;51.020;6.764;2022-11-21T07:53:00;7.20;99.90
11838;DHT22;5978;51.020;6.764;2022-11-21T07:55:26;7.30;99.90
11838;DHT22;5978;51.020;6.764;2022-11-21T07:58:01;7.30;99.90
11838;DHT22;5978;51.020;6.764;2022-11-21T08:00:28;7.30;99.90
11838;DHT22;5978;51.020;6.764;2022-11-21T08:02:54;7.20;99.90
11838;DHT22;5978;51.020;6.764;2022-11-21T08:05:20;7.20;99.90
11838;DHT22;5978;51.020;6.764;2022-11-21T08:07:45;7.20;99.90
11838;DHT22;5978;51.020;6.764;2022-11-21T08:10:11;7.30;99.90
11838;DHT22;5978;51.020;6.764;2022-11-21T08:12:37;7.30;99.90
11838;DHT22;5978;51.020;6.764;2022-11-21T08:15:03;7.40;99.90
11838;DHT22;5978;51.020;6.764;2022-11-21T08:17:29;7.40;99.90
11838;DHT22;5978;51.020;6.764;2022-11-21T08:19:55;7.40;99.90
11838;DHT22;5978;51.020;6.764;2022-11-21T08:22:22;7.40;99.90
11838;DHT22;5978;51.020;6.764;2022-11-21T08:24:48;7.40;99.90
11838;DHT22;5978;51.020;6.764;2022-11-21T08:27:13;7.40;99.90
11838;DHT22;5978;51.020;6.764;2022-11-21T08:29:41;7.30;99.90
11838;DHT22;5978;51.020;6.764;2022-11-21T08:32:07;7.30;99.90
11838;DHT22;5978;51.020;6.764;2022-11-21T08:34:32;7.20;99.90
11838;DHT22;5978;51.020;6.764;2022-11-21T08:36:58;7.20;99.90
11838;DHT22;5978;51.020;6.764;2022-11-21T08:39:24;7.30;99.90
11838;DHT22;5978;51.020;6.764;2022-11-21T08:41:50;7.30;99.90
11838;DHT22;5978;51.020;6.764;2022-11-21T08:44:31;7.30;99.90
11838;DHT22;5978;51.020;6.764;2022-11-21T08:46:57;7.30;99.90
11838;DHT22;5978;51.020;6.764;2022-11-21T08:49:24;7.30;99.90
11838;DHT22;5978;51.020;6.764;2022-11-21T08:51:50;7.30;99.90
11838;DHT22;5978;51.020;6.764;2022-11-21T08:54:17;7.30;99.90
11838;DHT22;5978;51.020;6.764;2022-11-21T08:56:43;7.30;99.90
11838;DHT22;5978;51.020;6.764;2022-11-21T08:59:08;7.40;99.90
11838;DHT22;5978;51.020;6.764;2022-11-21T09:01:34;7.40;99.90
11838;DHT22;5978;51.020;6.764;2022-11-21T09:03:59;7.40;99.90
11838;DHT22;5978;51.020;6.764;2022-11-21T09:06:25;7.40;99.90
11838;DHT22;5978;51.020;6.764;2022-11-21T09:08:51;7.50;99.90
11838;DHT22;5978;51.020;6.764;2022-11-21T09:11:17;7.60;99.90
11838;DHT22;5978;51.020;6.764;2022-11-21T09:13:43;7.60;99.90
11838;DHT22;5978;51.020;6.764;2022-11-21T09:16:10;7.60;99.90
11838;DHT22;5978;51.020;6.764;2022-11-21T09:18:54;7.60;99.90
11838;DHT22;5978;51.020;6.764;2022-11-21T09:21:20;7.70;99.90
11838;DHT22;5978;51.020;6.764;2022-11-21T09:23:48;7.80;99.90
11838;DHT22;5978;51.020;6.764;2022-11-21T09:26:14;7.90;99.90
11838;DHT22;5978;51.020;6.764;2022-11-21T09:28:40;8.00;99.90
11838;DHT22;5978;51.020;6.764;2022-11-21T09:31:06;8.10;99.90
11838;DHT22;5978;51.020;6.764;2022-11-21T09:33:31;8.10;99.90
11838;DHT22;5978;51.020;6.764;2022-11-21T09:35:58;8.20;99.90
11838;DHT22;5978;51.020;6.764;2022-11-21T09:38:24;8.20;99.90
11838;DHT22;5978;51.020;6.764;2022-11-21T09:40:58;8.30;99.90
11838;DHT22;5978;51.020;6.764;2022-11-21T09:43:49;8.30;99.90
11838;DHT22;5978;51.020;6.764;2022-11-21T09:46:27;8.40;99.90
11838;DHT22;5978;51.020;6.764;2022-11-21T09:49:05;8.40;99.90
11838;DHT22;5978;51.020;6.764;2022-11-21T09:51:33;8.50;99.90
11838;DHT22;5978;51.020;6.764;2022-11-21T09:54:17;8.60;99.90
11838;DHT22;5978;51.020;6.764;2022-11-21T09:56:44;8.90;99.90
11838;DHT22;5978;51.020;6.764;2022-11-21T09:59:34;9.10;99.90
11838;DHT22;5978;51.020;6.764;2022-11-21T10:02:00;9.30;99.90
11838;DHT22;5978;51.020;6.764;2022-11-21T10:04:27;9.50;99.90
11838;DHT22;5978;51.020;6.764;2022-11-21T10:07:06;9.70;99.90
11838;DHT22;5978;51.020;6.764;2022-11-21T10:10:03;10.00;99.90
11838;DHT22;5978;51.020;6.764;2022-11-21T10:13:10;10.30;99.90
11838;DHT22;5978;51.020;6.764;2022-11-21T10:23:53;10.50;99.90
11838;DHT22;5978;51.020;6.764;2022-11-21T10:26:44;10.60;99.90
11838;DHT22;5978;51.020;6.764;2022-11-21T10:31:45;10.70;99.90
11838;DHT22;5978;51.020;6.764;2022-11-21T10:34:21;10.90;99.90
11838;DHT22;5978;51.020;6.764;2022-11-21T10:36:50;11.10;99.90
11838;DHT22;5978;51.020;6.764;2022-11-21T10:39:40;11.40;99.90
11838;DHT22;5978;51.020;6.764;2022-11-21T10:42:39;11.40;99.90
11838;DHT22;5978;51.020;6.764;2022-11-21T10:45:11;11.30;99.90
11838;DHT22;5978;51.020;6.764;2022-11-21T10:47:41;11.40;99.90
11838;DHT22;5978;51.020;6.764;2022-11-21T10:53:07;12.50;99.90
11838;DHT22;5978;51.020;6.764;2022-11-21T10:56:10;13.10;99.90
11838;DHT22;5978;51.020;6.764;2022-11-21T10:58:43;13.80;99.90
11838;DHT22;5978;51.020;6.764;2022-11-21T11:01:29;13.60;99.90
11838;DHT22;5978;51.020;6.764;2022-11-21T11:04:17;13.50;99.90
11838;DHT22;5978;51.020;6.764;2022-11-21T11:06:45;13.90;99.90
11838;DHT22;5978;51.020;6.764;2022-11-21T11:09:32;14.90;99.90
11838;DHT22;5978;51.020;6.764;2022-11-21T11:12:27;15.60;99.90
11838;DHT22;5978;51.020;6.764;2022-11-21T11:17:50;17.30;99.90
11838;DHT22;5978;51.020;6.764;2022-11-21T11:20:35;17.80;99.90
11838;DHT22;5978;51.020;6.764;2022-11-21T11:23:15;17.40;99.90
11838;DHT22;5978;51.020;6.764;2022-11-21T11:25:55;17.10;99.90
11838;DHT22;5978;51.020;6.764;2022-11-21T11:28:21;17.00;99.90
11838;DHT22;5978;51.020;6.764;2022-11-21T11:30:54;17.80;99.90
11838;DHT22;5978;51.020;6.764;2022-11-21T11:33:48;18.20;99.60
11838;DHT22;5978;51.020;6.764;2022-11-21T11:38:59;16.60;98.80
11838;DHT22;5978;51.020;6.764;2022-11-21T11:41:44;16.20;99.90
11838;DHT22;5978;51.020;6.764;2022-11-21T11:47:34;16.20;99.90
11838;DHT22;5978;51.020;6.764;2022-11-21T11:50:22;16.10;99.90
11838;DHT22;5978;51.020;6.764;2022-11-21T11:55:51;14.90;99.90
11838;DHT22;5978;51.020;6.764;2022-11-21T12:01:40;15.20;99.90
11838;DHT22;5978;51.020;6.764;2022-11-21T12:04:14;16.40;99.90
11838;DHT22;5978;51.020;6.764;2022-11-21T12:09:38;18.40;93.30
11838;DHT22;5978;51.020;6.764;2022-11-21T12:12:28;17.20;93.40
11838;DHT22;5978;51.020;6.764;2022-11-21T12:15:11;17.60;95.80
11838;DHT22;5978;51.020;6.764;2022-11-21T12:45:38;14.20;99.90
11838;DHT22;5978;51.020;6.764;2022-11-21T12:54:31;14.90;99.90
11838;DHT22;5978;51.020;6.764;2022-11-21T12:57:11;15.00;99.90
11838;DHT22;5978;51.020;6.764;2022-11-21T13:05:26;14.80;99.90
11838;DHT22;5978;51.020;6.764;2022-11-21T13:08:00;14.30;99.90
11838;DHT22;5978;51.020;6.764;2022-11-21T13:10:27;13.80;99.90
11838;DHT22;5978;51.020;6.764;2022-11-21T13:15:29;12.80;99.90
11838;DHT22;5978;51.020;6.764;2022-11-21T13:21:02;12.40;99.90
11838;DHT22;5978;51.020;6.764;2022-11-21T13:23:36;12.20;99.90
11838;DHT22;5978;51.020;6.764;2022-11-21T13:29:10;11.90;99.90
11838;DHT22;5978;51.020;6.764;2022-11-21T13:31:36;11.70;99.90
11838;DHT22;5978;51.020;6.764;2022-11-21T13:34:02;11.60;99.90
11838;DHT22;5978;51.020;6.764;2022-11-21T13:44:39;11.50;99.90
11838;DHT22;5978;51.020;6.764;2022-11-21T13:49:47;11.30;99.90
11838;DHT22;5978;51.020;6.764;2022-11-21T13:55:34;11.60;99.90
11838;DHT22;5978;51.020;6.764;2022-11-21T13:58:36;11.60;99.90
11838;DHT22;5978;51.020;6.764;2022-11-21T14:09:52;11.50;99.90
11838;DHT22;5978;51.020;6.764;2022-11-21T14:12:39;11.50;99.90
11838;DHT22;5978;51.020;6.764;2022-11-21T14:17:52;11.20;99.90
11838;DHT22;5978;51.020;6.764;2022-11-21T14:20:33;11.10;99.90
11838;DHT22;5978;51.020;6.764;2022-11-21T14:23:19;11.00;99.90
11838;DHT22;5978;51.020;6.764;2022-11-21T14:25:48;10.80;99.90
11838;DHT22;5978;51.020;6.764;2022-11-21T14:28:35;10.60;99.90
11838;DHT22;5978;51.020;6.764;2022-11-21T14:31:03;10.50;99.90
11838;DHT22;5978;51.020;6.764;2022-11-21T14:36:18;10.10;99.90
11838;DHT22;5978;51.020;6.764;2022-11-21T14:38:55;10.00;99.90
11838;DHT22;5978;51.020;6.764;2022-11-21T14:44:01;9.80;99.90
11838;DHT22;5978;51.020;6.764;2022-11-21T14:46:28;9.60;99.90
11838;DHT22;5978;51.020;6.764;2022-11-21T14:48:54;9.50;99.90
11838;DHT22;5978;51.020;6.764;2022-11-21T14:51:23;9.50;99.90
11838;DHT22;5978;51.020;6.764;2022-11-21T14:53:50;9.40;99.90
11838;DHT22;5978;51.020;6.764;2022-11-21T14:56:27;9.40;99.90
11838;DHT22;5978;51.020;6.764;2022-11-21T14:58:56;9.30;99.90
11838;DHT22;5978;51.020;6.764;2022-11-21T15:01:28;9.20;99.90
11838;DHT22;5978;51.020;6.764;2022-11-21T15:06:20;9.10;99.90
11838;DHT22;5978;51.020;6.764;2022-11-21T15:08:46;9.00;99.90
11838;DHT22;5978;51.020;6.764;2022-11-21T15:11:13;9.00;99.90
11838;DHT22;5978;51.020;6.764;2022-11-21T15:13:42;8.90;99.90
11838;DHT22;5978;51.020;6.764;2022-11-21T15:16:09;8.80;99.90
11838;DHT22;5978;51.020;6.764;2022-11-21T15:18:34;8.80;99.90
11838;DHT22;5978;51.020;6.764;2022-11-21T15:21:02;8.70;99.90
11838;DHT22;5978;51.020;6.764;2022-11-21T15:23:36;8.60;99.90
11838;DHT22;5978;51.020;6.764;2022-11-21T15:26:29;8.60;99.90
11838;DHT22;5978;51.020;6.764;2022-11-21T15:28:56;8.60;99.90
11838;DHT22;5978;51.020;6.764;2022-11-21T15:31:24;8.50;99.90
11838;DHT22;5978;51.020;6.764;2022-11-21T15:34:04;8.50;99.90
11838;DHT22;5978;51.020;6.764;2022-11-21T15:36:31;8.40;99.90
11838;DHT22;5978;51.020;6.764;2022-11-21T15:39:11;8.40;99.90
11838;DHT22;5978;51.020;6.764;2022-11-21T15:41:39;8.40;99.90
11838;DHT22;5978;51.020;6.764;2022-11-21T15:46:32;8.40;99.90
11838;DHT22;5978;51.020;6.764;2022-11-21T15:49:00;8.40;99.90
11838;DHT22;5978;51.020;6.764;2022-11-21T15:51:34;8.40;99.90
11838;DHT22;5978;51.020;6.764;2022-11-21T15:54:00;8.40;99.90
11838;DHT22;5978;51.020;6.764;2022-11-21T15:56:28;8.40;99.90
11838;DHT22;5978;51.020;6.764;2022-11-21T15:58:54;8.30;99.90
11838;DHT22;5978;51.020;6.764;2022-11-21T16:01:25;8.30;99.90
11838;DHT22;5978;51.020;6.764;2022-11-21T16:04:11;8.30;99.90
11838;DHT22;5978;51.020;6.764;2022-11-21T16:06:36;8.30;99.90
11838;DHT22;5978;51.020;6.764;2022-11-21T16:09:03;8.30;99.90
11838;DHT22;5978;51.020;6.764;2022-11-21T16:11:36;8.20;99.90
11838;DHT22;5978;51.020;6.764;2022-11-21T16:14:03;8.30;99.90
11838;DHT22;5978;51.020;6.764;2022-11-21T16:16:31;8.40;99.90
11838;DHT22;5978;51.020;6.764;2022-11-21T16:18:58;8.30;99.90
11838;DHT22;5978;51.020;6.764;2022-11-21T16:21:24;8.30;99.90
11838;DHT22;5978;51.020;6.764;2022-11-21T16:23:50;8.30;99.90
11838;DHT22;5978;51.020;6.764;2022-11-21T16:26:17;8.30;99.90
11838;DHT22;5978;51.020;6.764;2022-11-21T16:28:43;8.30;99.90
11838;DHT22;5978;51.020;6.764;2022-11-21T16:31:19;8.30;99.90
11838;DHT22;5978;51.020;6.764;2022-11-21T16:33:45;8.30;99.90
11838;DHT22;5978;51.020;6.764;2022-11-21T16:36:11;8.30;99.90
11838;DHT22;5978;51.020;6.764;2022-11-21T16:38:37;8.30;99.90
11838;DHT22;5978;51.020;6.764;2022-11-21T16:41:03;8.30;99.90
11838;DHT22;5978;51.020;6.764;2022-11-21T16:43:31;8.20;99.90
11838;DHT22;5978;51.020;6.764;2022-11-21T16:46:08;8.20;99.90
11838;DHT22;5978;51.020;6.764;2022-11-21T16:48:34;8.20;99.90
11838;DHT22;5978;51.020;6.764;2022-11-21T16:51:13;8.20;99.90
11838;DHT22;5978;51.020;6.764;2022-11-21T16:53:40;8.20;99.90
11838;DHT22;5978;51.020;6.764;2022-11-21T16:56:06;8.10;99.90
11838;DHT22;5978;51.020;6.764;2022-11-21T16:58:32;8.10;99.90
11838;DHT22;5978;51.020;6.764;2022-11-21T17:01:05;8.00;99.90
11838;DHT22;5978;51.020;6.764;2022-11-21T17:03:30;8.00;99.90
11838;DHT22;5978;51.020;6.764;2022-11-21T17:05:57;7.90;99.90
11838;DHT22;5978;51.020;6.764;2022-11-21T17:08:23;7.90;99.90
11838;DHT22;5978;51.020;6.764;2022-11-21T17:11:11;7.90;99.90
11838;DHT22;5978;51.020;6.764;2022-11-21T17:13:41;7.90;99.90
11838;DHT22;5978;51.020;6.764;2022-11-21T17:16:08;7.90;99.90
11838;DHT22;5978;51.020;6.764;2022-11-21T17:18:34;7.90;99.90
11838;DHT22;5978;51.020;6.764;2022-11-21T17:21:07;7.90;99.90
11838;DHT22;5978;51.020;6.764;2022-11-21T17:23:34;7.90;99.90
11838;DHT22;5978;51.020;6.764;2022-11-21T17:26:04;7.90;99.90
11838;DHT22;5978;51.020;6.764;2022-11-21T17:28:31;7.90;99.90
11838;DHT22;5978;51.020;6.764;2022-11-21T17:30:57;7.90;99.90
11838;DHT22;5978;51.020;6.764;2022-11-21T17:33:23;7.90;99.90
11838;DHT22;5978;51.020;6.764;2022-11-21T17:35:49;7.90;99.90
11838;DHT22;5978;51.020;6.764;2022-11-21T17:38:14;7.80;99.90
11838;DHT22;5978;51.020;6.764;2022-11-21T17:40:40;7.80;99.90
11838;DHT22;5978;51.020;6.764;2022-11-21T17:43:06;7.80;99.90
11838;DHT22;5978;51.020;6.764;2022-11-21T17:45:33;7.80;99.90
11838;DHT22;5978;51.020;6.764;2022-11-21T17:47:59;7.80;99.90
11838;DHT22;5978;51.020;6.764;2022-11-21T17:50:25;7.70;99.90
11838;DHT22;5978;51.020;6.764;2022-11-21T17:52:50;7.70;99.90
11838;DHT22;5978;51.020;6.764;2022-11-21T17:55:17;7.70;99.90
11838;DHT22;5978;51.020;6.764;2022-11-21T17:57:42;7.60;99.90
11838;DHT22;5978;51.020;6.764;2022-11-21T18:00:09;7.60;99.90
11838;DHT22;5978;51.020;6.764;2022-11-21T18:02:35;7.60;99.90
11838;DHT22;5978;51.020;6.764;2022-11-21T18:05:00;7.60;99.90
11838;DHT22;5978;51.020;6.764;2022-11-21T18:07:26;7.60;99.90
11838;DHT22;5978;51.020;6.764;2022-11-21T18:09:51;7.60;99.90
11838;DHT22;5978;51.020;6.764;2022-11-21T18:12:17;7.60;99.90
11838;DHT22;5978;51.020;6.764;2022-11-21T18:14:43;7.60;99.90
11838;DHT22;5978;51.020;6.764;2022-11-21T18:17:08;7.60;99.90
11838;DHT22;5978;51.020;6.764;2022-11-21T18:19:34;7.60;99.90